createdAt,value
2018-04-01T00:02:27.640Z,2.00
2018-04-01T00:04:55.260Z,1.87
2018-04-01T00:07:22.967Z,1.87
2018-04-01T00:09:50.899Z,1.47
2018-04-01T00:12:18.522Z,1.83
2018-04-01T00:14:47.320Z,2.10
2018-04-01T00:17:16.012Z,2.17
2018-04-01T00:19:44.447Z,1.80
2018-04-01T00:22:12.160Z,1.80
2018-04-01T00:24:40.071Z,2.27
2018-04-01T00:27:07.703Z,1.90
2018-04-01T00:29:35.340Z,2.23
2018-04-01T00:32:04.036Z,1.80
2018-04-01T00:34:32.460Z,2.10
2018-04-01T00:37:00.133Z,2.10
2018-04-01T00:39:28.043Z,2.43
2018-04-01T00:41:56.430Z,2.30
2018-04-01T00:44:24.075Z,2.30
2018-04-01T00:46:52.732Z,2.23
2018-04-01T00:49:20.382Z,2.47
2018-04-01T00:51:48.038Z,2.37
2018-04-01T00:54:15.968Z,2.40
2018-04-01T00:56:43.596Z,1.97
2018-04-01T00:59:11.211Z,2.20
2018-04-01T01:01:39.122Z,2.37
2018-04-01T01:04:06.759Z,2.90
2018-04-01T01:06:34.413Z,2.90
2018-04-01T01:09:04.178Z,2.60
2018-04-01T01:11:31.798Z,2.70
2018-04-01T01:13:59.499Z,2.90
2018-04-01T01:16:28.211Z,3.03
2018-04-01T01:18:55.826Z,2.60
2018-04-01T01:21:24.311Z,2.70
2018-04-01T01:23:53.043Z,2.97
2018-04-01T01:26:20.668Z,2.93
2018-04-01T01:28:49.152Z,2.83
2018-04-01T01:31:17.847Z,3.10
2018-04-01T01:33:45.447Z,2.80
2018-04-01T01:36:13.122Z,3.13
2018-04-01T01:38:41.017Z,2.90
2018-04-01T01:41:09.399Z,3.10
2018-04-01T01:43:37.799Z,3.00
2018-04-01T01:46:05.679Z,3.00
2018-04-01T01:48:33.288Z,3.37
2018-04-01T01:51:01.711Z,3.10
2018-04-01T01:53:29.605Z,3.40
2018-04-01T01:55:57.271Z,3.30
2018-04-01T01:58:25.000Z,3.43
2018-04-01T02:00:52.943Z,4.27
2018-04-01T02:03:21.309Z,4.33
2018-04-01T02:05:49.687Z,4.20
2018-04-01T02:08:18.342Z,4.27
2018-04-01T02:10:45.987Z,4.60
2018-04-01T02:13:13.646Z,5.03
2018-04-01T02:15:41.580Z,4.83
2018-04-01T02:18:09.963Z,4.90
2018-04-01T02:20:37.566Z,4.80
2018-04-01T02:23:05.424Z,5.13
2018-04-01T02:25:33.055Z,4.20
2018-04-01T02:28:00.689Z,4.80
2018-04-01T02:30:29.396Z,4.57
2018-04-01T02:32:57.048Z,5.80
2018-04-01T02:35:25.569Z,5.33
2018-04-01T02:37:53.528Z,5.37
2018-04-01T02:40:21.152Z,5.53
2018-04-01T02:42:49.848Z,5.03
2018-04-01T02:45:18.536Z,4.90
2018-04-01T02:47:46.204Z,5.43
2018-04-01T02:50:13.804Z,5.33
2018-04-01T02:52:41.699Z,4.83
2018-04-01T02:55:09.355Z,5.50
2018-04-01T02:57:37.800Z,5.70
2018-04-01T03:00:05.748Z,5.60
2018-04-01T03:02:33.381Z,5.17
2018-04-01T03:05:01.788Z,5.40
2018-04-01T03:07:29.747Z,5.50
2018-04-01T03:09:58.186Z,4.87
2018-04-01T03:12:26.198Z,5.30
2018-04-01T03:14:54.155Z,5.43
2018-04-01T03:17:21.755Z,5.47
2018-04-01T03:19:49.461Z,5.57
2018-04-01T03:22:18.239Z,5.23
2018-04-01T03:24:45.902Z,6.20
2018-04-01T03:27:13.478Z,6.10
2018-04-01T03:29:42.171Z,5.70
2018-04-01T03:32:09.800Z,5.80
2018-04-01T03:34:37.460Z,5.63
2018-04-01T03:37:05.353Z,5.50
2018-04-01T03:39:33.747Z,6.97
2018-04-01T03:42:01.368Z,6.43
2018-04-01T03:44:29.259Z,6.10
2018-04-01T03:46:56.872Z,6.03
2018-04-01T03:49:24.530Z,6.00
2018-04-01T03:54:46.709Z,6.50
2018-04-01T03:57:14.280Z,6.63
2018-04-01T03:59:41.932Z,7.00
2018-04-01T04:02:09.793Z,6.17
2018-04-01T04:04:37.432Z,7.70
2018-04-01T04:07:05.108Z,6.50
2018-04-01T04:09:34.028Z,7.33
2018-04-01T04:12:02.362Z,7.13
2018-04-01T04:14:30.743Z,7.83
2018-04-01T04:16:58.633Z,7.40
2018-04-01T04:19:26.362Z,7.30
2018-04-01T04:21:54.757Z,8.57
2018-04-01T04:24:22.591Z,7.80
2018-04-01T04:26:50.553Z,7.57
2018-04-01T04:29:21.959Z,8.53
2018-04-01T04:31:49.975Z,8.07
2018-04-01T04:34:18.315Z,8.60
2018-04-01T04:36:46.684Z,8.60
2018-04-01T04:39:15.305Z,8.33
2018-04-01T04:41:42.893Z,9.27
2018-04-01T04:44:10.541Z,9.20
2018-04-01T04:46:38.600Z,9.43
2018-04-01T04:49:06.157Z,8.60
2018-04-01T04:51:33.712Z,8.90
2018-04-01T04:54:02.323Z,8.70
2018-04-01T04:56:29.963Z,8.77
2018-04-01T04:58:57.633Z,8.17
2018-04-01T05:01:25.632Z,8.77
2018-04-01T05:03:53.996Z,8.23
2018-04-01T05:06:21.578Z,7.30
2018-04-01T05:08:49.523Z,7.73
2018-04-01T05:11:17.868Z,7.53
2018-04-01T05:13:46.220Z,7.37
2018-04-01T05:16:14.859Z,7.80
2018-04-01T05:18:42.475Z,7.60
2018-04-01T05:21:19.396Z,6.87
2018-04-01T05:23:47.308Z,7.87
2018-04-01T05:26:14.890Z,7.63
2018-04-01T05:28:43.256Z,7.10
2018-04-01T05:31:11.885Z,7.50
2018-04-01T05:33:39.480Z,7.27
2018-04-01T05:36:07.982Z,6.83
2018-04-01T05:38:36.842Z,7.73
2018-04-01T05:41:04.454Z,7.57
2018-04-01T05:43:32.113Z,7.30
2018-04-01T05:46:01.064Z,8.00
2018-04-01T05:48:28.665Z,7.90
2018-04-01T05:50:56.254Z,6.87
2018-04-01T05:53:24.127Z,7.97
2018-04-01T05:55:51.766Z,7.17
2018-04-01T05:58:19.457Z,8.60
2018-04-01T06:00:47.301Z,7.70
2018-04-01T06:03:14.878Z,8.00
2018-04-01T06:05:42.532Z,7.47
2018-04-01T06:08:10.370Z,7.63
2018-04-01T06:10:37.931Z,7.93
2018-04-01T06:13:05.516Z,7.33
2018-04-01T06:15:33.351Z,7.77
2018-04-01T06:18:00.927Z,7.50
2018-04-01T06:20:28.575Z,7.50
2018-04-01T06:22:56.454Z,7.07
2018-04-01T06:25:24.017Z,6.87
2018-04-01T06:27:51.631Z,7.03
2018-04-01T06:30:20.270Z,6.90
2018-04-01T06:32:47.900Z,6.60
2018-04-01T06:35:15.480Z,6.93
2018-04-01T06:37:43.086Z,6.83
2018-04-01T06:40:10.782Z,7.17
2018-04-01T06:42:38.650Z,6.70
2018-04-01T06:45:06.249Z,5.93
2018-04-01T06:47:33.842Z,7.10
2018-04-01T06:50:02.559Z,7.23
2018-04-01T06:52:30.121Z,6.93
2018-04-01T06:54:57.732Z,6.87
2018-04-01T06:57:25.601Z,7.50
2018-04-01T06:59:53.156Z,7.37
2018-04-01T07:02:20.717Z,7.23
2018-04-01T07:04:49.358Z,7.07
2018-04-01T07:07:17.761Z,7.23
2018-04-01T07:09:45.378Z,6.80
2018-04-01T07:12:13.275Z,6.60
2018-04-01T07:14:40.846Z,6.53
2018-04-01T07:17:08.428Z,6.77
2018-04-01T07:19:36.426Z,7.80
2018-04-01T07:22:04.209Z,7.07
2018-04-01T07:24:31.829Z,7.30
2018-04-01T07:27:00.516Z,7.97
2018-04-01T07:29:28.883Z,7.13
2018-04-01T07:31:56.462Z,8.97
2018-04-01T07:34:24.832Z,8.50
2018-04-01T07:36:53.188Z,7.20
2018-04-01T07:39:20.777Z,7.70
2018-04-01T07:41:49.430Z,7.63
2018-04-01T07:44:17.028Z,7.77
2018-04-01T07:46:48.582Z,7.83
2018-04-01T07:49:17.277Z,6.83
2018-04-01T07:51:44.880Z,8.03
2018-04-01T07:54:12.487Z,6.70
2018-04-01T07:56:41.142Z,6.00
2018-04-01T07:59:08.705Z,6.17
2018-04-01T08:01:36.320Z,6.50
2018-04-01T08:04:04.233Z,6.50
2018-04-01T08:06:31.817Z,6.23
2018-04-01T08:09:00.154Z,7.70
2018-04-01T08:11:28.038Z,7.73
2018-04-01T08:13:55.604Z,8.30
2018-04-01T08:16:23.973Z,7.33
2018-04-01T08:18:51.907Z,8.13
2018-04-01T08:21:19.507Z,8.73
2018-04-01T08:23:47.950Z,9.43
2018-04-01T08:26:15.932Z,9.20
2018-04-01T08:28:43.856Z,10.70
2018-04-01T08:31:11.545Z,9.30
2018-04-01T08:33:39.466Z,10.73
2018-04-01T08:36:07.866Z,9.47
2018-04-01T08:38:35.517Z,10.47
2018-04-01T08:41:03.413Z,9.43
2018-04-01T08:43:31.004Z,10.53
2018-04-01T08:45:58.604Z,10.03
2018-04-01T08:48:26.571Z,12.33
2018-04-01T08:50:54.958Z,11.00
2018-04-01T08:53:22.596Z,9.23
2018-04-01T08:55:51.250Z,11.00
2018-04-01T08:58:18.827Z,8.30
2018-04-01T09:00:46.434Z,9.57
2018-04-01T09:03:14.351Z,7.93
2018-04-01T09:05:42.700Z,9.57
2018-04-01T09:08:10.330Z,9.70
2018-04-01T09:10:38.291Z,9.73
2018-04-01T09:13:05.942Z,10.50
2018-04-01T09:15:34.336Z,9.93
2018-04-01T09:18:02.225Z,10.33
2018-04-01T09:20:29.807Z,10.33
2018-04-01T09:22:57.401Z,9.03
2018-04-01T09:25:26.247Z,9.33
2018-04-01T09:27:53.936Z,9.87
2018-04-01T09:30:21.611Z,11.07
2018-04-01T09:32:50.277Z,11.53
2018-04-01T09:35:17.846Z,10.73
2018-04-01T09:37:46.257Z,10.97
2018-04-01T09:40:14.153Z,11.27
2018-04-01T09:42:41.725Z,13.90
2018-04-01T09:45:10.127Z,13.23
2018-04-01T09:47:38.905Z,13.57
2018-04-01T09:50:07.684Z,12.43
2018-04-01T09:52:42.203Z,10.83
2018-04-01T09:55:11.049Z,13.30
2018-04-01T09:57:38.734Z,12.20
2018-04-01T10:00:07.518Z,13.13
2018-04-01T10:02:38.430Z,11.70
2018-04-01T10:05:10.245Z,10.97
2018-04-01T10:07:39.591Z,13.33
2018-04-01T10:10:09.808Z,12.23
2018-04-01T10:12:39.363Z,14.37
2018-04-01T10:15:08.901Z,13.07
2018-04-01T10:17:38.664Z,13.23
2018-04-01T10:20:07.745Z,14.40
2018-04-01T10:22:39.120Z,14.93
2018-04-01T10:25:09.549Z,14.27
2018-04-01T10:27:40.016Z,11.80
2018-04-01T10:30:11.439Z,11.70
2018-04-01T10:32:44.949Z,12.80
2018-04-01T10:35:14.001Z,14.80
2018-04-01T10:37:43.004Z,14.17
2018-04-01T10:40:11.987Z,15.93
2018-04-01T10:46:31.653Z,12.67
2018-04-01T10:49:05.130Z,12.90
2018-04-01T10:51:42.615Z,9.57
2018-04-01T10:54:10.577Z,12.83
2018-04-01T10:56:38.166Z,13.13
2018-04-01T10:59:05.781Z,13.50
2018-04-01T11:01:33.715Z,11.80
2018-04-01T11:04:02.916Z,13.70
2018-04-01T11:06:32.806Z,12.63
2018-04-01T11:09:00.532Z,13.37
2018-04-01T11:11:28.732Z,13.70
2018-04-01T11:13:58.322Z,14.90
2018-04-01T11:16:26.731Z,14.40
2018-04-01T11:18:54.329Z,12.97
2018-04-01T11:21:22.191Z,15.50
2018-04-01T11:23:49.871Z,13.63
2018-04-01T11:26:18.360Z,14.07
2018-04-01T11:28:46.221Z,13.30
2018-04-01T11:31:14.725Z,14.70
2018-04-01T11:33:45.172Z,11.83
2018-04-01T11:36:13.322Z,6.87
2018-04-01T11:38:40.998Z,10.73
2018-04-01T11:41:09.383Z,10.40
2018-04-01T11:43:38.799Z,10.13
2018-04-01T11:46:06.481Z,10.13
2018-04-01T11:48:37.689Z,11.33
2018-04-01T11:51:06.389Z,10.43
2018-04-01T11:53:34.029Z,11.73
2018-04-01T11:56:03.609Z,11.53
2018-04-01T11:58:34.122Z,11.30
2018-04-01T12:04:03.769Z,11.27
2018-04-01T12:06:32.273Z,11.00
2018-04-01T12:09:00.759Z,11.23
2018-04-01T12:11:28.479Z,9.77
2018-04-01T12:13:56.145Z,10.57
2018-04-01T12:16:23.924Z,9.40
2018-04-01T12:18:52.337Z,7.20
2018-04-01T12:21:20.625Z,8.00
2018-04-01T12:23:50.757Z,9.83
2018-04-01T12:26:19.461Z,9.77
2018-04-01T12:28:47.061Z,7.33
2018-04-01T12:31:15.582Z,10.13
2018-04-01T12:33:44.073Z,13.97
2018-04-01T12:36:11.745Z,17.43
2018-04-01T12:38:39.470Z,15.63
2018-04-01T12:41:08.369Z,16.87
2018-04-01T12:43:36.979Z,19.23
2018-04-01T12:46:05.770Z,20.00
2018-04-01T12:48:34.544Z,21.30
2018-04-01T12:51:02.962Z,20.20
2018-04-01T12:53:31.586Z,22.60
2018-04-01T12:56:02.371Z,21.70
2018-04-01T12:58:31.058Z,20.33
2018-04-01T13:00:59.742Z,21.03
2018-04-01T13:03:30.261Z,22.10
2018-04-01T13:05:57.903Z,22.57
2018-04-01T13:08:26.529Z,23.47
2018-04-01T13:10:55.193Z,22.90
2018-04-01T13:13:22.836Z,23.30
2018-04-01T13:15:50.453Z,23.00
2018-04-01T13:18:19.145Z,23.40
2018-04-01T13:20:46.862Z,22.60
2018-04-01T13:23:14.488Z,24.10
2018-04-01T13:25:43.068Z,24.97
2018-04-01T13:28:10.718Z,25.33
2018-04-01T13:30:38.309Z,24.40
2018-04-01T13:33:06.153Z,25.90
2018-04-01T13:35:33.733Z,24.47
2018-04-01T13:38:01.366Z,23.40
2018-04-01T13:40:29.245Z,24.30
2018-04-01T13:42:56.901Z,23.80
2018-04-01T13:45:24.592Z,22.67
2018-04-01T13:47:52.503Z,23.73
2018-04-01T13:50:20.182Z,17.17
2018-04-01T13:52:47.775Z,22.60
2018-04-01T13:55:15.644Z,21.97
2018-04-01T13:57:43.395Z,18.97
2018-04-01T14:00:11.068Z,18.20
2018-04-01T14:02:38.980Z,19.73
2018-04-01T14:05:07.345Z,20.10
2018-04-01T14:07:35.750Z,18.90
2018-04-01T14:10:03.692Z,18.67
2018-04-01T14:12:32.070Z,19.10
2018-04-01T14:15:00.455Z,18.50
2018-04-01T14:17:29.124Z,16.50
2018-04-01T14:19:56.760Z,18.70
2018-04-01T14:22:24.418Z,16.73
2018-04-01T14:24:52.305Z,19.60
2018-04-01T14:27:20.192Z,19.63
2018-04-01T14:29:48.674Z,17.27
2018-04-01T14:32:17.446Z,16.93
2018-04-01T14:34:45.135Z,16.07
2018-04-01T14:37:13.562Z,16.13
2018-04-01T14:39:42.132Z,19.47
2018-04-01T14:42:11.462Z,17.50
2018-04-01T14:44:39.415Z,18.17
2018-04-01T14:47:07.064Z,18.43
2018-04-01T14:49:34.745Z,18.33
2018-04-01T14:52:02.754Z,18.50
2018-04-01T14:54:31.173Z,18.70
2018-04-01T14:56:58.820Z,18.80
2018-04-01T14:59:26.771Z,21.67
2018-04-01T15:01:55.179Z,21.23
2018-04-01T15:04:22.816Z,16.73
2018-04-01T15:06:51.432Z,21.17
2018-04-01T15:09:19.107Z,22.03
2018-04-01T15:11:46.812Z,22.37
2018-04-01T15:14:15.565Z,21.53
2018-04-01T15:16:43.113Z,20.53
2018-04-01T15:19:10.719Z,20.30
2018-04-01T15:21:38.989Z,23.07
2018-04-01T15:24:07.372Z,23.57
2018-04-01T15:26:35.817Z,23.60
2018-04-01T15:29:03.807Z,21.87
2018-04-01T15:31:32.250Z,25.00
2018-04-01T15:33:59.925Z,21.00
2018-04-01T15:36:27.887Z,24.20
2018-04-01T15:38:55.588Z,23.67
2018-04-01T15:41:24.090Z,23.33
2018-04-01T15:43:52.274Z,27.83
2018-04-01T15:46:19.986Z,21.40
2018-04-01T15:48:48.426Z,25.53
2018-04-01T15:51:16.348Z,28.03
2018-04-01T15:53:44.834Z,23.77
2018-04-01T15:56:12.421Z,24.63
2018-04-01T15:58:40.428Z,27.93
2018-04-01T16:01:08.043Z,20.73
2018-04-01T16:03:35.709Z,19.23
2018-04-01T16:06:03.619Z,22.73
2018-04-01T16:08:31.264Z,16.00
2018-04-01T16:10:59.348Z,13.37
2018-04-01T16:13:28.071Z,13.27
2018-04-01T16:15:58.167Z,13.50
2018-04-01T16:18:25.945Z,11.10
2018-04-01T16:20:54.980Z,10.00
2018-04-01T16:23:22.614Z,14.23
2018-04-01T16:25:51.267Z,14.70
2018-04-01T16:28:19.197Z,10.30
2018-04-01T16:30:46.861Z,12.47
2018-04-01T16:33:15.267Z,12.80
2018-04-01T16:35:46.270Z,13.53
2018-04-01T16:38:13.932Z,12.77
2018-04-01T16:40:41.627Z,11.57
2018-04-01T16:43:09.259Z,11.03
2018-04-01T16:45:36.893Z,13.10
2018-04-01T16:48:04.553Z,16.17
2018-04-01T16:50:32.502Z,14.53
2018-04-01T16:53:00.913Z,14.00
2018-04-01T16:55:29.301Z,13.10
2018-04-01T16:57:57.262Z,16.07
2018-04-01T17:00:24.927Z,15.03
2018-04-01T17:02:52.617Z,15.30
2018-04-01T17:05:20.535Z,17.50
2018-04-01T17:07:48.262Z,17.20
2018-04-01T17:10:15.906Z,16.13
2018-04-01T17:12:44.644Z,19.83
2018-04-01T17:15:13.101Z,18.90
2018-04-01T17:17:41.551Z,18.70
2018-04-01T17:20:09.540Z,21.67
2018-04-01T17:22:37.862Z,18.63
2018-04-01T17:25:05.678Z,23.10
2018-04-01T17:27:38.536Z,23.70
2018-04-01T17:30:06.692Z,24.10
2018-04-01T17:32:34.400Z,23.13
2018-04-01T17:35:02.348Z,23.80
2018-04-01T17:37:30.020Z,18.23
2018-04-01T17:39:58.040Z,20.97
2018-04-01T17:42:26.002Z,20.80
2018-04-01T17:44:54.443Z,23.73
2018-04-01T17:47:22.155Z,22.83
2018-04-01T17:49:50.219Z,23.53
2018-04-01T17:52:19.058Z,25.47
2018-04-01T17:54:47.076Z,26.57
2018-04-01T17:57:15.095Z,27.47
2018-04-01T17:59:43.750Z,28.07
2018-04-01T18:02:11.423Z,26.13
2018-04-01T18:04:39.381Z,27.23
2018-04-01T18:07:07.071Z,26.93
2018-04-01T18:09:34.976Z,28.30
2018-04-01T18:12:03.667Z,26.53
2018-04-01T18:14:31.304Z,30.70
2018-04-01T18:16:58.972Z,28.27
2018-04-01T18:19:26.853Z,31.20
2018-04-01T18:21:55.291Z,29.67
2018-04-01T18:24:22.973Z,31.30
2018-04-01T18:26:51.826Z,31.33
2018-04-01T18:29:19.495Z,32.23
2018-04-01T18:34:24.427Z,32.27
2018-04-01T18:36:52.430Z,32.53
2018-04-01T18:39:20.049Z,32.77
2018-04-01T18:41:48.350Z,35.07
2018-04-01T18:44:16.028Z,36.33
2018-04-01T18:46:43.670Z,39.63
2018-04-01T18:49:11.562Z,39.60
2018-04-01T18:51:39.146Z,41.07
2018-04-01T18:54:07.616Z,40.27
2018-04-01T18:56:36.312Z,45.20
2018-04-01T18:59:05.263Z,48.80
2018-04-01T19:01:33.796Z,50.60
2018-04-01T19:04:02.902Z,47.67
2018-04-01T19:06:30.496Z,50.33
2018-04-01T19:08:58.079Z,47.57
2018-04-01T19:11:25.736Z,45.87
2018-04-01T19:13:53.428Z,50.67
2018-04-01T19:16:23.528Z,51.50
2018-04-01T19:18:53.714Z,50.83
2018-04-01T19:21:23.623Z,49.93
2018-04-01T19:23:52.679Z,50.87
2018-04-01T19:26:21.713Z,53.43
2018-04-01T19:28:50.787Z,52.67
2018-04-01T19:31:20.117Z,52.70
2018-04-01T19:33:50.009Z,55.90
2018-04-01T19:36:19.086Z,54.37
2018-04-01T19:38:48.613Z,53.37
2018-04-01T19:41:18.754Z,55.13
2018-04-01T19:43:48.020Z,53.17
2018-04-01T19:46:18.620Z,54.80
2018-04-01T19:48:49.446Z,53.17
2018-04-01T19:51:18.587Z,55.93
2018-04-01T19:53:47.979Z,54.37
2018-04-01T19:56:16.994Z,59.10
2018-04-01T19:58:46.078Z,52.23
2018-04-01T20:01:15.433Z,52.70
2018-04-01T20:03:45.289Z,56.30
2018-04-01T20:06:16.963Z,48.03
2018-04-01T20:08:45.991Z,48.47
2018-04-01T20:22:00.028Z,45.13
2018-04-01T20:24:29.668Z,48.43
2018-04-01T20:46:29.757Z,46.67
2018-04-01T21:11:32.660Z,56.33
2018-04-01T21:20:55.824Z,56.60
2018-04-01T21:26:47.214Z,58.77
2018-04-01T21:36:14.865Z,63.37
2018-04-01T21:46:03.878Z,59.83
2018-04-01T21:49:11.727Z,60.33
2018-04-01T22:27:37.422Z,62.33
2018-04-01T22:37:13.734Z,62.53
2018-04-01T22:47:03.049Z,64.27
2018-04-01T23:22:57.804Z,65.97
2018-04-01T23:25:43.474Z,66.27
2018-04-01T23:28:16.805Z,64.80
2018-04-01T23:37:42.050Z,72.97
